Time;durP1;ratioP1;P1;durP2;ratioP2;P2;SDS_P1;SDS_P2;PMS_P1;PMS_P2;Temp;Humidity;BMP_temperature;BMP_pressure;BME280_temperature;BME280_humidity;BME280_pressure;Samples;Min_cycle;Max_cycle;Signal;HPM_P1;HPM_P2
2022/11/28 00:00:08;;;;;;;6.80;6.20;;;5.00;99.90;;;;;;6116315;23;20190;-73
2022/11/28 00:02:35;;;;;;;6.93;6.32;;;5.00;99.90;;;;;;6115784;23;20180;-72
2022/11/28 00:05:02;;;;;;;6.95;6.35;;;5.00;99.90;;;;;;6116502;23;20233;-73
2022/11/28 00:07:31;;;;;;;6.57;6.07;;;5.00;99.90;;;;;;6115998;23;20191;-71
2022/11/28 00:09:58;;;;;;;6.65;6.05;;;5.00;99.90;;;;;;6110199;23;20281;-71
2022/11/28 00:12:26;;;;;;;5.95;5.45;;;5.00;99.90;;;;;;6103989;23;20230;-71
2022/11/28 00:14:53;;;;;;;6.32;5.82;;;5.00;99.90;;;;;;6115919;23;20207;-71
2022/11/28 00:17:21;;;;;;;6.28;5.53;;;5.10;99.90;;;;;;6116447;23;20530;-71
2022/11/28 00:19:47;;;;;;;6.72;6.15;;;5.10;99.90;;;;;;6115538;23;20271;-71
2022/11/28 00:22:14;;;;;;;6.80;6.20;;;5.10;99.90;;;;;;6113225;23;20221;-71
2022/11/28 00:24:43;;;;;;;6.78;6.28;;;5.10;99.90;;;;;;6115490;23;20191;-71
2022/11/28 00:27:10;;;;;;;6.72;6.13;;;5.20;99.90;;;;;;6113485;23;20282;-73
2022/11/28 00:29:40;;;;;;;6.65;6.13;;;5.20;99.90;;;;;;6112444;23;20259;-71
2022/11/28 00:32:07;;;;;;;6.85;6.35;;;5.20;99.90;;;;;;6115423;23;20294;-71
2022/11/28 00:34:34;;;;;;;7.25;6.65;;;5.20;99.90;;;;;;6117139;23;20187;-71
2022/11/28 00:37:02;;;;;;;7.07;6.47;;;5.30;99.90;;;;;;6117750;23;20591;-71
2022/11/28 00:39:30;;;;;;;6.65;6.05;;;5.30;99.90;;;;;;6115448;23;20300;-72
2022/11/28 00:41:58;;;;;;;6.93;6.32;;;5.30;99.90;;;;;;6114913;23;20218;-72
2022/11/28 00:44:25;;;;;;;6.95;6.35;;;5.30;99.90;;;;;;6115505;23;20183;-71
2022/11/28 00:46:52;;;;;;;6.63;6.07;;;5.40;99.90;;;;;;6116044;23;20262;-71
2022/11/28 00:49:20;;;;;;;7.18;6.57;;;5.40;99.90;;;;;;6115299;23;20257;-71
2022/11/28 00:51:47;;;;;;;7.38;6.78;;;5.40;99.90;;;;;;6117122;23;20323;-71
2022/11/28 00:54:15;;;;;;;6.90;6.30;;;5.40;99.90;;;;;;6117499;23;20677;-71
2022/11/28 00:56:42;;;;;;;7.15;6.45;;;5.50;99.90;;;;;;6115198;23;20195;-71
2022/11/28 00:59:10;;;;;;;7.70;7.00;;;5.50;99.90;;;;;;6115557;23;20215;-71
2022/11/28 01:01:41;;;;;;;6.68;6.07;;;5.50;99.90;;;;;;6114328;23;20308;-71
2022/11/28 01:04:10;;;;;;;7.20;6.50;;;5.50;99.90;;;;;;6115311;23;20206;-72
2022/11/28 01:06:39;;;;;;;6.97;6.38;;;5.50;99.90;;;;;;6115013;23;20206;-72
2022/11/28 01:09:10;;;;;;;7.70;6.88;;;5.50;99.90;;;;;;6117057;23;20549;-71
2022/11/28 01:11:39;;;;;;;8.10;7.38;;;5.50;99.90;;;;;;6113798;23;20290;-71
2022/11/28 01:14:07;;;;;;;7.47;6.75;;;5.50;99.90;;;;;;6116740;23;20191;-70
2022/11/28 01:16:36;;;;;;;7.93;7.22;;;5.50;99.90;;;;;;6115985;23;20183;-71
2022/11/28 01:19:03;;;;;;;8.60;7.90;;;5.50;99.90;;;;;;6116290;23;20191;-71
2022/11/28 01:21:30;;;;;;;8.90;8.10;;;5.50;99.90;;;;;;6113625;23;20191;-71
2022/11/28 01:23:57;;;;;;;9.15;7.93;;;5.50;99.90;;;;;;6117517;23;20210;-71
2022/11/28 01:26:27;;;;;;;8.82;8.00;;;5.40;99.90;;;;;;6113624;23;20195;-71
2022/11/28 01:28:54;;;;;;;8.77;8.00;;;5.40;99.90;;;;;;6114245;23;20317;-70
2022/11/28 01:31:24;;;;;;;9.00;8.20;;;5.40;99.90;;;;;;6112153;23;20191;-71
2022/11/28 01:33:53;;;;;;;8.60;7.70;;;5.40;99.90;;;;;;6110488;23;20614;-71
2022/11/28 01:36:21;;;;;;;8.18;7.47;;;5.40;99.90;;;;;;6114357;23;20211;-70
2022/11/28 01:38:49;;;;;;;8.77;7.95;;;5.40;99.90;;;;;;6114985;23;20210;-71
2022/11/28 01:41:20;;;;;;;7.93;7.22;;;5.30;99.90;;;;;;6114735;23;20594;-70
2022/11/28 01:43:59;;;;;;;8.00;7.18;;;5.30;99.90;;;;;;6109763;23;20633;-71
2022/11/28 01:46:28;;;;;;;8.85;7.95;;;5.20;99.90;;;;;;6115264;23;20314;-71
2022/11/28 01:49:00;;;;;;;8.45;7.75;;;5.20;99.90;;;;;;6115584;23;20266;-71
2022/11/28 01:51:28;;;;;;;8.52;7.72;;;5.20;99.90;;;;;;6113161;23;20609;-70
2022/11/28 01:53:57;;;;;;;8.40;7.70;;;5.20;99.90;;;;;;6118589;23;20211;-71
2022/11/28 01:56:27;;;;;;;7.63;7.00;;;5.10;99.90;;;;;;6115912;23;20198;-72
2022/11/28 01:58:58;;;;;;;8.02;7.32;;;5.00;99.90;;;;;;6118734;23;20566;-72
2022/11/28 02:01:27;;;;;;;7.72;7.10;;;5.00;99.90;;;;;;6115928;23;20227;-71
2022/11/28 02:03:58;;;;;;;8.02;7.32;;;4.90;99.90;;;;;;6116030;23;20633;-72
2022/11/28 02:06:27;;;;;;;8.75;7.95;;;4.90;99.90;;;;;;6111430;23;20278;-71
2022/11/28 02:08:56;;;;;;;8.88;8.18;;;4.90;99.90;;;;;;6112931;23;20262;-72
2022/11/28 02:11:38;;;;;;;9.68;7.95;;;4.90;99.90;;;;;;6116593;23;20199;-72
2022/11/28 02:14:15;;;;;;;8.00;7.30;;;4.90;99.90;;;;;;6109451;23;20654;-72
2022/11/28 02:17:01;;;;;;;7.97;7.28;;;4.90;99.90;;;;;;6114423;23;20228;-72
2022/11/28 02:20:16;;;;;;;8.10;7.40;;;4.90;99.90;;;;;;6114984;23;20293;-72
2022/11/28 02:22:52;;;;;;;8.35;7.65;;;4.90;99.90;;;;;;6108776;23;20613;-72
2022/11/28 02:25:41;;;;;;;8.27;7.60;;;4.90;99.90;;;;;;6113903;23;20195;-71
2022/11/28 02:28:53;;;;;;;7.53;6.93;;;4.80;99.90;;;;;;6116358;23;20191;-71
2022/11/28 02:31:35;;;;;;;6.80;6.20;;;4.80;99.90;;;;;;6111307;23;20233;-71
2022/11/28 02:34:10;;;;;;;7.40;6.80;;;4.80;99.90;;;;;;6114560;23;20187;-72
2022/11/28 02:36:46;;;;;;;7.20;6.50;;;4.80;99.90;;;;;;6113341;23;20265;-72
2022/11/28 02:39:22;;;;;;;6.88;6.22;;;4.80;99.90;;;;;;6111769;23;20191;-72
2022/11/28 02:41:58;;;;;;;7.57;6.55;;;4.80;99.90;;;;;;6115736;23;20198;-71
2022/11/28 02:44:32;;;;;;;6.53;5.93;;;4.80;99.90;;;;;;6116565;23;20212;-71
2022/11/28 02:47:05;;;;;;;6.47;5.88;;;4.70;99.90;;;;;;6112787;23;20282;-72
2022/11/28 02:49:39;;;;;;;6.65;6.05;;;4.80;99.90;;;;;;6108290;23;20222;-72
2022/11/28 02:52:12;;;;;;;6.57;5.88;;;4.80;99.90;;;;;;6111755;23;20214;-71
2022/11/28 02:54:40;;;;;;;5.82;5.32;;;4.90;99.90;;;;;;6113338;23;20191;-72
2022/11/28 02:57:08;;;;;;;6.20;5.70;;;4.90;99.90;;;;;;6117445;23;20262;-72
2022/11/28 02:59:46;;;;;;;7.00;6.40;;;4.90;99.90;;;;;;6115736;23;20305;-72
2022/11/28 03:02:17;;;;;;;7.13;6.53;;;4.90;99.90;;;;;;6108418;23;20238;-72
2022/11/28 03:04:52;;;;;;;6.32;5.82;;;4.90;99.90;;;;;;6113861;23;20196;-72
2022/11/28 03:07:34;;;;;;;7.10;6.50;;;4.90;99.90;;;;;;6111124;23;20194;-72
2022/11/28 03:10:11;;;;;;;7.53;6.82;;;4.90;99.90;;;;;;6115788;23;20286;-72
2022/11/28 03:12:50;;;;;;;6.50;5.90;;;4.80;99.90;;;;;;6113998;23;20706;-72
2022/11/28 03:15:20;;;;;;;6.90;6.30;;;4.80;99.90;;;;;;6112623;23;20328;-72
2022/11/28 03:17:55;;;;;;;7.60;6.90;;;4.80;99.90;;;;;;6073322;23;20198;-71
2022/11/28 03:20:31;;;;;;;6.75;6.15;;;4.80;99.90;;;;;;6101064;23;20194;-72
2022/11/28 03:23:09;;;;;;;7.60;6.90;;;4.80;99.90;;;;;;6115109;23;20187;-72
2022/11/28 03:25:43;;;;;;;7.38;6.68;;;4.90;99.90;;;;;;6113033;23;20199;-72
2022/11/28 03:28:18;;;;;;;6.80;6.30;;;4.90;99.90;;;;;;6112981;23;20274;-72
2022/11/28 03:30:50;;;;;;;8.30;7.60;;;4.90;99.90;;;;;;6112554;23;20598;-72
2022/11/28 03:33:20;;;;;;;7.50;6.80;;;4.90;99.90;;;;;;6108842;23;20290;-72
2022/11/28 03:35:53;;;;;;;7.80;7.05;;;4.90;99.90;;;;;;6114946;23;20190;-72
2022/11/28 03:38:27;;;;;;;7.25;6.65;;;4.90;99.90;;;;;;6118371;23;20195;-72
2022/11/28 03:41:01;;;;;;;7.40;6.70;;;4.90;99.90;;;;;;6120226;23;20193;-72
2022/11/28 03:43:38;;;;;;;8.00;7.30;;;4.90;99.90;;;;;;6109350;23;20637;-72
2022/11/28 03:46:11;;;;;;;7.43;6.70;;;5.00;99.90;;;;;;6112130;23;20211;-72
2022/11/28 03:48:43;;;;;;;7.80;7.10;;;5.00;99.90;;;;;;6113614;23;20218;-72
2022/11/28 03:51:15;;;;;;;7.30;6.70;;;5.00;99.90;;;;;;6114629;23;20199;-72
2022/11/28 03:53:50;;;;;;;7.03;6.43;;;5.00;99.90;;;;;;6117670;23;20675;-72
2022/11/28 03:56:22;;;;;;;7.55;6.85;;;5.00;99.90;;;;;;6114810;23;20260;-72
2022/11/28 03:58:54;;;;;;;7.38;6.68;;;5.00;99.90;;;;;;6108747;23;20196;-72
2022/11/28 04:01:32;;;;;;;7.20;6.50;;;5.00;99.90;;;;;;6112752;23;20627;-72
2022/11/28 04:04:10;;;;;;;7.38;6.68;;;4.80;99.90;;;;;;6110582;23;20266;-71
2022/11/28 04:06:50;;;;;;;7.68;6.85;;;4.90;99.90;;;;;;6108729;23;20191;-72
2022/11/28 04:09:23;;;;;;;6.85;6.30;;;4.90;99.90;;;;;;6104831;23;20229;-72
2022/11/28 04:11:55;;;;;;;6.40;5.80;;;4.90;99.90;;;;;;6116867;23;20187;-72
2022/11/28 04:14:28;;;;;;;7.85;7.10;;;4.80;99.90;;;;;;6116397;23;20275;-72
2022/11/28 04:17:03;;;;;;;7.03;6.43;;;4.90;99.90;;;;;;6112244;23;20191;-72
2022/11/28 04:19:36;;;;;;;7.80;7.10;;;4.90;99.90;;;;;;6113255;23;20296;-72
2022/11/28 04:22:11;;;;;;;7.35;6.75;;;4.90;99.90;;;;;;6115514;23;20778;-72
2022/11/28 04:24:44;;;;;;;6.00;5.40;;;4.90;99.90;;;;;;6117232;23;20252;-71
2022/11/28 04:27:14;;;;;;;7.30;6.60;;;4.90;99.90;;;;;;6114853;23;20213;-72
2022/11/28 04:29:46;;;;;;;6.82;6.13;;;4.90;99.90;;;;;;6111980;23;20271;-71
2022/11/28 04:32:17;;;;;;;6.53;6.03;;;4.90;99.90;;;;;;6117933;23;20226;-72
2022/11/28 04:34:49;;;;;;;6.70;6.10;;;4.90;99.90;;;;;;6117593;23;20286;-72
2022/11/28 04:37:18;;;;;;;8.15;7.07;;;4.90;99.90;;;;;;6113265;23;20289;-72
2022/11/28 04:39:49;;;;;;;7.15;6.47;;;4.90;99.90;;;;;;6117778;23;20207;-71
2022/11/28 04:42:20;;;;;;;10.07;6.35;;;4.80;99.90;;;;;;6117059;23;20529;-72
2022/11/28 04:44:51;;;;;;;7.50;6.50;;;4.80;99.90;;;;;;6115616;23;20202;-72
2022/11/28 04:47:25;;;;;;;7.00;6.15;;;4.80;99.90;;;;;;6119630;23;20266;-89
2022/11/28 04:49:54;;;;;;;7.80;6.57;;;4.80;99.90;;;;;;6123033;23;20248;-87
2022/11/28 04:52:29;;;;;;;7.15;5.95;;;4.80;99.90;;;;;;6133654;23;20266;-90
2022/11/28 04:55:05;;;;;;;6.57;6.00;;;4.80;99.90;;;;;;6138371;23;20179;-89
2022/11/28 04:57:37;;;;;;;6.90;6.30;;;4.70;99.90;;;;;;6133735;23;20274;-90
2022/11/28 05:00:08;;;;;;;6.97;5.97;;;4.70;99.90;;;;;;6134059;23;20221;-89
2022/11/28 05:02:37;;;;;;;7.13;6.43;;;4.70;99.90;;;;;;6132701;23;20188;-89
2022/11/28 05:05:08;;;;;;;7.03;6.43;;;4.70;99.90;;;;;;6128478;23;20198;-89
2022/11/28 05:07:38;;;;;;;6.40;5.80;;;4.60;99.90;;;;;;6120072;23;20210;-90
2022/11/28 05:10:07;;;;;;;6.45;5.88;;;4.60;99.90;;;;;;6119229;23;20246;-88
2022/11/28 05:12:35;;;;;;;6.65;5.82;;;4.60;99.90;;;;;;6115862;23;20509;-81
2022/11/28 05:15:08;;;;;;;7.00;6.38;;;4.60;99.90;;;;;;6118066;23;20229;-81
2022/11/28 05:17:35;;;;;;;7.10;6.40;;;4.50;99.90;;;;;;6117401;23;20274;-81
2022/11/28 05:20:02;;;;;;;6.25;5.65;;;4.60;99.90;;;;;;6117363;23;20226;-81
2022/11/28 05:22:29;;;;;;;7.00;6.30;;;4.60;99.90;;;;;;6119496;23;20278;-81
2022/11/28 05:24:58;;;;;;;6.75;6.15;;;4.70;99.90;;;;;;6118509;23;20369;-80
2022/11/28 05:27:25;;;;;;;5.90;5.40;;;4.70;99.90;;;;;;6116040;23;20600;-81
2022/11/28 05:29:53;;;;;;;6.25;5.75;;;4.80;99.90;;;;;;6115979;23;20251;-81
2022/11/28 05:32:20;;;;;;;6.85;6.25;;;4.80;99.90;;;;;;6116084;23;20202;-81
2022/11/28 05:34:47;;;;;;;6.90;6.20;;;4.90;99.90;;;;;;6117547;23;20261;-81
2022/11/28 05:37:15;;;;;;;6.78;6.18;;;4.90;99.90;;;;;;6115254;23;20219;-81
2022/11/28 05:39:42;;;;;;;5.75;5.07;;;5.10;99.90;;;;;;6116820;23;20191;-81
2022/11/28 05:42:11;;;;;;;6.80;6.13;;;5.00;99.90;;;;;;6115877;23;20195;-80
2022/11/28 05:44:39;;;;;;;5.85;5.30;;;5.10;99.90;;;;;;6113011;23;20219;-80
2022/11/28 05:47:06;;;;;;;7.10;6.40;;;5.10;99.90;;;;;;6115428;23;20196;-82
2022/11/28 05:49:33;;;;;;;5.35;4.90;;;5.00;99.90;;;;;;6117553;23;20199;-81
2022/11/28 05:52:01;;;;;;;5.95;5.45;;;5.00;99.90;;;;;;6112773;23;20268;-80
2022/11/28 05:54:29;;;;;;;5.90;5.30;;;5.00;99.90;;;;;;6116795;23;20783;-80
2022/11/28 05:56:56;;;;;;;5.53;5.03;;;5.00;99.90;;;;;;6118930;23;20199;-80
2022/11/28 05:59:27;;;;;;;6.35;5.75;;;5.00;99.90;;;;;;6117861;23;20661;-80
2022/11/28 06:01:55;;;;;;;6.70;6.10;;;5.10;99.90;;;;;;6117139;23;20612;-80
2022/11/28 06:04:22;;;;;;;8.00;7.20;;;5.00;99.90;;;;;;6115851;23;20188;-81
2022/11/28 06:06:52;;;;;;;10.23;7.90;;;5.00;99.90;;;;;;6115572;23;20647;-81
2022/11/28 06:09:19;;;;;;;6.65;6.05;;;5.00;99.90;;;;;;6116117;23;20211;-81
2022/11/28 06:11:46;;;;;;;7.32;6.55;;;5.10;99.90;;;;;;6111987;23;20191;-79
2022/11/28 06:14:13;;;;;;;7.32;6.53;;;5.00;99.90;;;;;;6112424;23;20386;-77
2022/11/28 06:16:42;;;;;;;7.40;6.60;;;5.00;99.90;;;;;;6116637;23;20204;-78
2022/11/28 06:19:11;;;;;;;7.07;6.38;;;5.00;99.90;;;;;;6117323;23;20188;-78
2022/11/28 06:21:38;;;;;;;7.35;6.65;;;5.00;99.90;;;;;;6114763;23;20195;-78
2022/11/28 06:24:07;;;;;;;8.18;6.50;;;5.00;99.90;;;;;;6117837;23;20218;-78
2022/11/28 06:26:34;;;;;;;7.47;6.75;;;5.00;99.90;;;;;;6111643;23;20194;-78
2022/11/28 06:29:01;;;;;;;7.35;6.65;;;5.10;99.90;;;;;;6110148;23;20199;-80
2022/11/28 06:31:30;;;;;;;6.13;5.43;;;5.10;99.90;;;;;;6097581;23;20199;-79
2022/11/28 06:33:59;;;;;;;8.25;7.00;;;5.40;99.90;;;;;;6104485;23;20270;-74
2022/11/28 06:36:26;;;;;;;7.30;6.57;;;5.60;99.90;;;;;;6111239;23;20239;-74
2022/11/28 06:38:54;;;;;;;7.03;6.30;;;5.70;99.90;;;;;;6105749;23;20542;-75
2022/11/28 06:41:22;;;;;;;7.55;6.85;;;5.60;99.90;;;;;;6112141;23;20262;-77
2022/11/28 06:43:49;;;;;;;7.70;6.93;;;5.60;99.90;;;;;;6113398;23;20186;-74
2022/11/28 06:46:19;;;;;;;7.78;7.07;;;5.60;99.90;;;;;;6111360;23;20266;-74
2022/11/28 06:48:48;;;;;;;7.68;6.80;;;5.50;99.90;;;;;;6111007;23;20358;-74
2022/11/28 06:51:17;;;;;;;7.10;6.40;;;5.40;99.90;;;;;;6109972;23;20196;-74
2022/11/28 06:53:44;;;;;;;7.40;6.70;;;5.30;99.90;;;;;;6106026;23;20238;-74
2022/11/28 06:56:14;;;;;;;7.95;6.90;;;5.20;99.90;;;;;;6103449;23;20187;-74
2022/11/28 06:58:42;;;;;;;7.35;6.68;;;5.20;99.90;;;;;;6112686;23;20266;-74
2022/11/28 07:01:13;;;;;;;7.45;6.85;;;5.20;99.90;;;;;;6108527;23;20270;-74
2022/11/28 07:03:41;;;;;;;7.50;6.80;;;5.10;99.90;;;;;;6105084;23;20188;-74
2022/11/28 07:06:09;;;;;;;7.70;7.00;;;5.00;99.90;;;;;;6101717;23;20257;-74
2022/11/28 07:08:38;;;;;;;8.05;7.20;;;5.00;99.90;;;;;;6108954;23;20262;-74
2022/11/28 07:11:10;;;;;;;8.50;7.60;;;5.00;99.90;;;;;;6107485;23;20290;-74
2022/11/28 07:13:39;;;;;;;7.72;7.03;;;5.00;99.90;;;;;;6105457;23;20306;-74
2022/11/28 07:16:07;;;;;;;11.10;7.15;;;5.00;99.90;;;;;;6109841;23;20187;-74
2022/11/28 07:18:35;;;;;;;8.75;7.88;;;5.10;99.90;;;;;;6110273;23;20214;-74
2022/11/28 07:21:03;;;;;;;8.48;7.68;;;5.00;99.90;;;;;;6102673;23;20331;-74
2022/11/28 07:23:30;;;;;;;9.45;8.55;;;5.00;99.90;;;;;;6114692;23;20526;-74
2022/11/28 07:26:04;;;;;;;9.35;8.35;;;5.00;99.90;;;;;;6117280;23;20534;-74
2022/11/28 07:28:32;;;;;;;8.82;7.95;;;5.00;99.90;;;;;;6112522;23;20196;-76
2022/11/28 07:31:04;;;;;;;7.70;7.00;;;5.00;99.90;;;;;;6104007;23;20252;-74
2022/11/28 07:33:33;;;;;;;9.88;8.20;;;5.00;99.90;;;;;;6106164;23;20210;-75
2022/11/28 07:36:02;;;;;;;9.07;8.13;;;5.00;99.90;;;;;;6102930;23;20202;-74
2022/11/28 07:38:29;;;;;;;8.57;7.57;;;5.10;99.90;;;;;;6109057;23;20195;-74
2022/11/28 07:41:04;;;;;;;9.23;8.07;;;5.10;99.90;;;;;;6105502;23;20297;-74
2022/11/28 07:43:31;;;;;;;8.27;7.47;;;5.10;99.90;;;;;;6098710;23;20656;-74
2022/11/28 07:46:00;;;;;;;8.77;7.97;;;5.10;99.90;;;;;;6117540;23;20205;-73
2022/11/28 07:48:29;;;;;;;12.48;7.80;;;5.10;99.90;;;;;;6104383;23;20761;-73
2022/11/28 07:50:56;;;;;;;8.00;7.20;;;5.20;99.90;;;;;;6072293;23;20192;-73
2022/11/28 07:53:24;;;;;;;8.90;8.00;;;5.20;99.90;;;;;;6102665;23;20760;-74
2022/11/28 07:55:51;;;;;;;7.82;7.07;;;5.20;99.90;;;;;;6115554;23;20207;-74
2022/11/28 07:58:20;;;;;;;7.90;7.20;;;5.20;99.90;;;;;;6137979;23;20205;-74
2022/11/28 08:00:48;;;;;;;8.50;7.63;;;5.20;99.90;;;;;;6119784;23;20232;-73
2022/11/28 08:03:15;;;;;;;8.57;7.70;;;5.20;99.90;;;;;;6126253;23;20283;-74
2022/11/28 08:05:48;;;;;;;10.18;7.95;;;5.20;99.90;;;;;;6127329;23;20210;-74
2022/11/28 08:08:16;;;;;;;8.70;7.10;;;5.30;99.90;;;;;;6110106;23;20211;-74
2022/11/28 08:10:43;;;;;;;7.97;7.18;;;5.40;99.90;;;;;;6101739;23;20202;-73
2022/11/28 08:13:11;;;;;;;8.15;6.68;;;5.50;99.90;;;;;;6102326;23;20497;-74
2022/11/28 08:15:41;;;;;;;8.18;7.38;;;5.50;99.90;;;;;;6101865;23;20233;-73
2022/11/28 08:18:08;;;;;;;8.40;7.57;;;5.60;99.90;;;;;;6102911;23;20218;-73
2022/11/28 08:20:35;;;;;;;9.20;8.30;;;5.60;99.90;;;;;;6105894;23;20531;-74
2022/11/28 08:23:05;;;;;;;7.95;7.05;;;5.60;99.90;;;;;;6106373;23;20262;-74
2022/11/28 08:25:32;;;;;;;6.88;6.28;;;5.70;99.90;;;;;;6101909;23;20191;-74
2022/11/28 08:28:00;;;;;;;8.10;7.30;;;5.60;99.90;;;;;;6112886;23;20188;-73
2022/11/28 08:30:27;;;;;;;11.25;7.35;;;5.60;99.90;;;;;;6107892;23;21200;-73
2022/11/28 08:32:56;;;;;;;7.75;7.05;;;5.70;99.90;;;;;;6109651;23;20265;-73
2022/11/28 08:35:23;;;;;;;9.23;8.15;;;5.60;99.90;;;;;;6111229;23;20644;-73
2022/11/28 08:37:50;;;;;;;9.38;8.35;;;5.70;99.90;;;;;;6110013;23;20271;-73
2022/11/28 08:40:18;;;;;;;8.00;7.22;;;5.70;99.90;;;;;;6101443;23;20245;-73
2022/11/28 08:42:45;;;;;;;7.55;6.90;;;5.60;99.90;;;;;;6105612;23;20298;-73
2022/11/28 08:45:12;;;;;;;9.02;7.53;;;5.60;99.90;;;;;;6103316;23;20195;-73
2022/11/28 08:47:39;;;;;;;8.10;7.30;;;5.60;99.90;;;;;;6113892;23;20192;-73
2022/11/28 08:50:11;;;;;;;8.20;7.30;;;5.60;99.90;;;;;;6109542;23;20351;-74
2022/11/28 08:52:38;;;;;;;7.95;7.25;;;5.60;99.90;;;;;;6101571;23;20187;-73
2022/11/28 08:55:06;;;;;;;11.38;7.55;;;5.50;99.90;;;;;;6112015;23;20207;-74
2022/11/28 08:57:33;;;;;;;8.30;7.47;;;5.60;99.90;;;;;;6105391;23;20704;-74
2022/11/28 09:00:00;;;;;;;13.07;7.25;;;5.60;99.90;;;;;;6111602;23;20718;-74
2022/11/28 09:02:28;;;;;;;7.45;6.75;;;5.70;99.90;;;;;;6112864;23;20194;-74
2022/11/28 09:04:55;;;;;;;7.55;6.85;;;5.80;99.90;;;;;;6115525;23;20183;-74
2022/11/28 09:07:24;;;;;;;7.10;6.10;;;5.90;99.90;;;;;;6114171;23;20195;-74
2022/11/28 09:09:51;;;;;;;8.18;7.32;;;6.00;99.90;;;;;;6113383;23;20191;-74
2022/11/28 09:12:18;;;;;;;7.95;7.15;;;6.00;99.90;;;;;;6097188;23;20215;-74
2022/11/28 09:14:45;;;;;;;8.27;7.22;;;6.00;99.90;;;;;;6105279;23;20207;-74
2022/11/28 09:17:14;;;;;;;9.40;7.10;;;6.00;99.90;;;;;;6109612;23;20256;-74
2022/11/28 09:19:41;;;;;;;7.43;6.72;;;6.00;99.90;;;;;;6100256;23;20211;-74
2022/11/28 09:22:09;;;;;;;8.10;7.30;;;6.00;99.90;;;;;;6109421;23;20195;-73
2022/11/28 09:24:37;;;;;;;8.07;7.30;;;6.10;99.90;;;;;;6106155;23;20191;-74
2022/11/28 09:27:04;;;;;;;8.57;7.70;;;6.10;99.90;;;;;;6107993;23;20258;-74
2022/11/28 09:29:31;;;;;;;8.10;6.95;;;6.20;99.90;;;;;;6106415;23;20193;-74
2022/11/28 09:31:58;;;;;;;8.30;7.40;;;6.30;99.90;;;;;;6104608;23;20265;-74
2022/11/28 09:34:26;;;;;;;7.95;7.13;;;6.40;99.90;;;;;;6107945;23;20505;-73
2022/11/28 09:36:53;;;;;;;8.10;7.40;;;6.40;99.90;;;;;;6096362;23;20191;-74
2022/11/28 09:39:20;;;;;;;8.20;7.40;;;6.40;99.90;;;;;;6096125;23;20188;-75
2022/11/28 09:42:01;;;;;;;7.20;6.50;;;6.40;99.90;;;;;;6103916;23;20215;-73
2022/11/28 09:44:37;;;;;;;7.78;6.97;;;6.40;99.90;;;;;;6112778;23;20233;-73
2022/11/28 09:47:11;;;;;;;7.82;7.13;;;6.50;99.90;;;;;;6117220;23;20182;-73
2022/11/28 09:49:45;;;;;;;7.57;6.88;;;6.50;99.90;;;;;;6110902;23;20298;-73
2022/11/28 09:52:24;;;;;;;10.25;8.68;;;6.50;99.90;;;;;;6103601;23;20188;-73
2022/11/28 09:55:03;;;;;;;7.60;6.78;;;6.60;99.90;;;;;;6095263;23;20211;-73
2022/11/28 09:57:38;;;;;;;8.25;7.45;;;6.60;99.90;;;;;;6102652;23;20192;-73
2022/11/28 10:00:10;;;;;;;11.55;8.10;;;6.70;99.90;;;;;;6105378;23;20195;-74
2022/11/28 10:02:48;;;;;;;9.43;7.82;;;6.70;99.90;;;;;;6102268;23;20192;-74
2022/11/28 10:05:23;;;;;;;9.02;7.85;;;6.70;99.90;;;;;;6106114;23;20618;-74
2022/11/28 10:08:10;;;;;;;8.30;7.47;;;6.80;99.90;;;;;;6104481;23;20640;-74
2022/11/28 10:10:49;;;;;;;8.30;7.40;;;6.90;99.90;;;;;;6100683;23;20968;-74
2022/11/28 10:13:23;;;;;;;10.32;8.15;;;7.00;99.90;;;;;;6113617;23;20267;-74
2022/11/28 10:16:06;;;;;;;8.73;7.93;;;7.10;99.90;;;;;;6107139;23;20286;-74
2022/11/28 10:18:43;;;;;;;8.70;6.82;;;7.30;99.90;;;;;;6110439;23;20266;-74
2022/11/28 10:21:21;;;;;;;8.50;7.70;;;7.40;99.90;;;;;;6116073;23;20307;-74
2022/11/28 10:23:52;;;;;;;9.10;7.88;;;7.50;99.90;;;;;;6106203;23;20480;-74
2022/11/28 10:26:26;;;;;;;7.22;6.63;;;7.60;99.90;;;;;;6107700;23;20266;-75
2022/11/28 10:28:57;;;;;;;7.97;7.28;;;7.70;99.90;;;;;;6095552;23;20266;-74
2022/11/28 10:31:30;;;;;;;7.38;6.70;;;7.60;99.90;;;;;;6103465;23;20188;-74
2022/11/28 10:34:02;;;;;;;7.65;6.95;;;7.60;99.90;;;;;;6108425;23;20187;-74
2022/11/28 10:36:39;;;;;;;8.38;7.57;;;7.50;99.90;;;;;;6104979;23;20228;-73
2022/11/28 10:39:11;;;;;;;7.93;6.90;;;7.40;99.90;;;;;;6107264;23;20222;-73
2022/11/28 10:41:45;;;;;;;7.05;6.38;;;7.40;99.90;;;;;;6106785;23;20641;-73
2022/11/28 10:44:18;;;;;;;9.90;8.57;;;7.30;99.90;;;;;;6095430;23;20739;-73
2022/11/28 10:46:57;;;;;;;8.50;7.70;;;7.40;99.90;;;;;;6098929;23;20221;-73
2022/11/28 10:49:33;;;;;;;9.02;8.23;;;7.30;99.90;;;;;;6099836;23;20191;-73
2022/11/28 10:52:08;;;;;;;8.05;7.13;;;7.30;99.90;;;;;;6091416;23;20200;-73
2022/11/28 10:54:59;;;;;;;7.80;7.00;;;7.70;99.90;;;;;;6104400;23;20207;-73
2022/11/28 10:57:31;;;;;;;8.20;7.15;;;7.60;99.90;;;;;;6112428;23;20187;-74
2022/11/28 11:00:11;;;;;;;10.18;7.18;;;7.40;99.90;;;;;;6122097;23;20239;-74
2022/11/28 11:02:44;;;;;;;7.63;6.72;;;7.50;99.90;;;;;;6108922;23;20185;-74
2022/11/28 11:05:15;;;;;;;7.82;7.07;;;7.60;99.90;;;;;;6110561;23;20272;-74
2022/11/28 11:07:47;;;;;;;7.68;6.97;;;7.50;99.90;;;;;;6097501;23;23507;-74
2022/11/28 11:10:16;;;;;;;7.32;6.70;;;7.40;99.90;;;;;;6112194;23;20234;-74
2022/11/28 11:12:44;;;;;;;8.77;6.93;;;7.50;99.90;;;;;;6113304;23;20184;-74
2022/11/28 11:15:23;;;;;;;7.88;7.05;;;7.50;99.90;;;;;;6111928;23;20222;-74
2022/11/28 11:17:50;;;;;;;7.93;7.13;;;7.40;99.90;;;;;;6102554;23;20264;-74
2022/11/28 11:20:39;;;;;;;7.03;6.43;;;7.40;99.90;;;;;;6105644;23;20577;-73
2022/11/28 11:23:16;;;;;;;9.10;6.80;;;7.50;99.90;;;;;;6091917;23;20195;-73
2022/11/28 11:25:49;;;;;;;8.95;6.63;;;7.50;99.90;;;;;;6106161;23;20180;-73
2022/11/28 11:28:39;;;;;;;8.10;7.03;;;7.50;99.90;;;;;;6101159;23;20205;-72
2022/11/28 11:31:18;;;;;;;7.68;6.97;;;7.40;99.90;;;;;;6113832;23;20625;-73
2022/11/28 11:33:46;;;;;;;9.07;7.35;;;7.50;99.90;;;;;;6108643;23;20206;-73
2022/11/28 11:36:26;;;;;;;9.20;6.80;;;7.30;99.90;;;;;;6108800;23;20227;-73
2022/11/28 11:39:06;;;;;;;9.55;7.30;;;7.30;99.90;;;;;;6113692;23;20689;-73
2022/11/28 11:41:34;;;;;;;7.43;6.68;;;7.30;99.90;;;;;;6113200;23;20187;-73
2022/11/28 11:44:28;;;;;;;7.55;6.75;;;7.30;99.90;;;;;;6113940;23;20241;-73
2022/11/28 11:46:57;;;;;;;9.45;7.75;;;7.30;99.90;;;;;;6112546;23;20213;-73
2022/11/28 11:49:29;;;;;;;9.27;8.25;;;7.30;99.90;;;;;;6106220;23;20188;-73
2022/11/28 11:51:59;;;;;;;9.73;8.18;;;7.30;99.90;;;;;;6106829;23;20183;-73
2022/11/28 11:54:26;;;;;;;9.30;8.45;;;7.20;99.90;;;;;;6109617;23;20270;-73
2022/11/28 11:56:56;;;;;;;9.05;7.80;;;7.10;99.90;;;;;;6108533;23;20249;-72
2022/11/28 11:59:30;;;;;;;8.70;7.85;;;7.10;99.90;;;;;;6108512;23;20274;-73
2022/11/28 12:02:02;;;;;;;8.82;8.02;;;7.10;99.90;;;;;;6105167;23;20226;-74
2022/11/28 12:04:33;;;;;;;10.82;8.60;;;7.00;99.90;;;;;;6105264;23;20196;-74
2022/11/28 12:07:06;;;;;;;11.50;8.57;;;7.10;99.90;;;;;;6110287;23;20207;-73
2022/11/28 12:09:39;;;;;;;10.98;8.77;;;7.10;99.90;;;;;;6098195;23;20275;-73
2022/11/28 12:12:13;;;;;;;9.35;8.43;;;7.10;99.90;;;;;;6110241;23;20188;-73
2022/11/28 12:14:41;;;;;;;8.85;8.05;;;7.10;99.90;;;;;;6109531;23;20195;-73
2022/11/28 12:17:28;;;;;;;9.40;7.75;;;7.10;99.90;;;;;;6102379;23;20214;-74
2022/11/28 12:20:06;;;;;;;9.50;8.20;;;7.10;99.90;;;;;;6115143;23;20638;-73
2022/11/28 12:22:46;;;;;;;10.15;9.15;;;7.20;99.90;;;;;;6107885;23;20196;-73
2022/11/28 12:25:21;;;;;;;9.75;8.85;;;7.20;99.90;;;;;;6096108;23;20184;-73
2022/11/28 12:28:03;;;;;;;10.57;9.15;;;7.20;99.90;;;;;;6108209;23;20301;-74
2022/11/28 12:30:49;;;;;;;9.93;8.90;;;7.20;99.90;;;;;;6107530;23;20274;-73
2022/11/28 12:33:32;;;;;;;9.23;8.43;;;7.30;99.90;;;;;;6102434;23;20192;-73
2022/11/28 12:36:15;;;;;;;9.45;8.55;;;7.20;99.90;;;;;;6100497;23;20681;-73
2022/11/28 12:38:59;;;;;;;9.80;8.90;;;7.20;99.90;;;;;;6109262;23;20275;-73
2022/11/28 12:41:56;;;;;;;10.10;9.10;;;7.20;99.90;;;;;;6115811;23;20191;-74
2022/11/28 12:44:34;;;;;;;9.73;8.73;;;7.30;99.90;;;;;;6093238;23;20215;-74
2022/11/28 12:47:09;;;;;;;9.80;8.90;;;7.30;99.90;;;;;;6116206;23;20187;-74
2022/11/28 12:49:47;;;;;;;10.10;9.15;;;7.40;99.90;;;;;;6101346;23;20273;-74
2022/11/28 12:52:24;;;;;;;11.50;8.93;;;7.40;99.90;;;;;;6107126;23;20252;-74
2022/11/28 12:55:07;;;;;;;10.10;9.20;;;7.40;99.90;;;;;;6112145;23;20195;-74
2022/11/28 12:57:40;;;;;;;9.95;8.80;;;7.50;99.90;;;;;;6110306;23;20265;-74
2022/11/28 13:00:14;;;;;;;9.77;8.70;;;7.50;99.90;;;;;;6106607;23;20271;-74
2022/11/28 13:02:53;;;;;;;12.80;9.10;;;7.60;99.90;;;;;;6104228;23;20223;-74
2022/11/28 13:05:41;;;;;;;11.02;8.93;;;7.70;99.90;;;;;;6111853;23;20185;-74
2022/11/28 13:08:40;;;;;;;9.55;8.65;;;7.80;99.90;;;;;;6106696;23;20199;-73
2022/11/28 13:11:20;;;;;;;10.10;8.45;;;7.80;99.90;;;;;;6112537;23;20566;-74
2022/11/28 13:13:53;;;;;;;9.23;8.27;;;7.80;99.90;;;;;;6115445;23;20542;-74
2022/11/28 13:16:26;;;;;;;9.35;8.30;;;7.70;99.90;;;;;;6107813;23;20203;-74
2022/11/28 13:18:59;;;;;;;8.73;7.93;;;7.70;99.90;;;;;;6104215;23;20192;-74